Portada
METAR-TAF:

METAR-TAF

Aeroports :

Bamako, Mali

latitud: 12-32N, longitud: 007-57W, altitud: 380 m

Observació

L'informe es va fer fa 34 minuts, a les 19:30 UTC
Vent 4 kt del Nord
Temperatura 34°C
Humitat 13%
Pressió 1009 hPa
Visibilitat 10 km o més
sense núvols per sota de 1500 mi sense presència de cumulonimbus.

METAR: GABS 201930Z 36004KT CAVOK 34/02 Q1009 NOSIG

Hora: 20:04 (20:04 UTC)

Pronòstic

L'informe es va fer fa 2 hores i 44 minuts, a les 17:20 UTC
Pronòstic vàlid del 20 a les 18 UTC al 21 a les 24 UTC
Vent 10 kt del Nord-Oest
Visibilitat: 8000 m
Probabilitat 30% :
Temporalment
l' 21 a les 16 UTC al 21 a les 22 UTC
Núvols disperses a una alçada de 3000 ft
Escasses núvols a una alçada de 4000 ft, Cumulonimbus.
tempesta

TAF: GABS 201720Z 2018/2124 31010KT 8000 NSC PROB30 TEMPO 2116/2122 TS SCT030 FEW040CB

Observacions i pronòstics meteorològics de més de 4000 aeroports (METAR i TAF).

Les estacions disponibles són els punts grocs i vermells al mapa.

Posi el ratolí al punt desitjat per veure el nom de l'estació.

Feu clic per veure les observacions i els pronòstics meteorològics.

Per canviar el mapa: feu clic els botons verds amb una creu de color negre per apropar; al botó verd amb un guió per allunyar la imatge; o en les fletxes verdes per a mapes adjacents.


METAR-TAF: